sensor_id;sensor_type;location;lat;lon;timestamp;P1;durP1;ratioP1;P2;durP2;ratioP2
39822;SDS011;25499;53.958;10.970;2023-05-21T05:47:58;8.63;;;4.20;;
39822;SDS011;25499;53.958;10.970;2023-05-21T05:50:25;7.38;;;3.80;;
39822;SDS011;25499;53.958;10.970;2023-05-21T05:52:52;11.55;;;4.22;;
39822;SDS011;25499;53.958;10.970;2023-05-21T05:55:19;12.52;;;4.35;;
39822;SDS011;25499;53.958;10.970;2023-05-21T05:57:46;8.25;;;4.05;;
39822;SDS011;25499;53.958;10.970;2023-05-21T06:00:13;8.90;;;3.95;;
39822;SDS011;25499;53.958;10.970;2023-05-21T06:02:40;9.13;;;3.92;;
39822;SDS011;25499;53.958;10.970;2023-05-21T06:05:09;8.77;;;4.25;;
39822;SDS011;25499;53.958;10.970;2023-05-21T06:07:36;9.00;;;3.83;;
39822;SDS011;25499;53.958;10.970;2023-05-21T06:10:03;7.20;;;4.13;;
39822;SDS011;25499;53.958;10.970;2023-05-21T06:12:31;5.75;;;4.30;;
39822;SDS011;25499;53.958;10.970;2023-05-21T06:14:57;7.75;;;4.43;;
39822;SDS011;25499;53.958;10.970;2023-05-21T06:17:24;8.00;;;4.20;;
39822;SDS011;25499;53.958;10.970;2023-05-21T06:19:51;8.05;;;4.28;;
39822;SDS011;25499;53.958;10.970;2023-05-21T06:22:19;8.55;;;3.92;;
39822;SDS011;25499;53.958;10.970;2023-05-21T06:24:46;20.95;;;4.70;;
39822;SDS011;25499;53.958;10.970;2023-05-21T06:27:13;7.03;;;4.00;;
39822;SDS011;25499;53.958;10.970;2023-05-21T06:29:39;8.85;;;4.45;;
39822;SDS011;25499;53.958;10.970;2023-05-21T06:32:06;9.05;;;4.30;;
39822;SDS011;25499;53.958;10.970;2023-05-21T06:34:33;7.30;;;4.57;;
39822;SDS011;25499;53.958;10.970;2023-05-21T06:37:01;7.60;;;4.00;;
39822;SDS011;25499;53.958;10.970;2023-05-21T06:39:29;7.55;;;4.00;;
39822;SDS011;25499;53.958;10.970;2023-05-21T06:41:55;10.68;;;4.40;;
39822;SDS011;25499;53.958;10.970;2023-05-21T06:44:22;7.20;;;4.32;;
39822;SDS011;25499;53.958;10.970;2023-05-21T06:46:49;8.52;;;4.40;;
39822;SDS011;25499;53.958;10.970;2023-05-21T06:49:16;7.68;;;4.65;;
39822;SDS011;25499;53.958;10.970;2023-05-21T06:51:42;10.40;;;4.78;;
39822;SDS011;25499;53.958;10.970;2023-05-21T06:54:09;7.15;;;4.40;;
39822;SDS011;25499;53.958;10.970;2023-05-21T06:56:37;8.32;;;4.68;;
39822;SDS011;25499;53.958;10.970;2023-05-21T06:59:04;8.57;;;4.53;;
39822;SDS011;25499;53.958;10.970;2023-05-21T07:01:31;11.73;;;4.45;;
39822;SDS011;25499;53.958;10.970;2023-05-21T07:03:58;10.02;;;4.13;;
39822;SDS011;25499;53.958;10.970;2023-05-21T07:06:25;7.80;;;4.68;;
39822;SDS011;25499;53.958;10.970;2023-05-21T07:08:51;8.35;;;4.75;;
39822;SDS011;25499;53.958;10.970;2023-05-21T07:11:18;8.02;;;4.30;;
39822;SDS011;25499;53.958;10.970;2023-05-21T07:13:46;9.27;;;4.68;;
39822;SDS011;25499;53.958;10.970;2023-05-21T07:16:13;13.43;;;5.00;;
39822;SDS011;25499;53.958;10.970;2023-05-21T07:18:41;8.82;;;4.28;;
39822;SDS011;25499;53.958;10.970;2023-05-21T07:21:08;6.72;;;4.45;;
39822;SDS011;25499;53.958;10.970;2023-05-21T07:23:35;12.07;;;4.40;;
39822;SDS011;25499;53.958;10.970;2023-05-21T07:26:02;7.20;;;4.30;;
39822;SDS011;25499;53.958;10.970;2023-05-21T07:28:29;7.53;;;4.47;;
39822;SDS011;25499;53.958;10.970;2023-05-21T07:30:58;10.73;;;4.85;;
39822;SDS011;25499;53.958;10.970;2023-05-21T07:35:54;8.52;;;4.30;;
39822;SDS011;25499;53.958;10.970;2023-05-21T07:38:20;9.70;;;5.15;;
39822;SDS011;25499;53.958;10.970;2023-05-21T07:40:47;8.45;;;4.82;;
39822;SDS011;25499;53.958;10.970;2023-05-21T07:43:14;9.52;;;4.82;;
39822;SDS011;25499;53.958;10.970;2023-05-21T07:45:42;9.10;;;4.20;;
39822;SDS011;25499;53.958;10.970;2023-05-21T07:48:10;8.02;;;3.60;;
39822;SDS011;25499;53.958;10.970;2023-05-21T07:50:37;8.20;;;4.10;;
39822;SDS011;25499;53.958;10.970;2023-05-21T07:53:03;9.57;;;4.43;;
39822;SDS011;25499;53.958;10.970;2023-05-21T07:55:30;5.45;;;3.85;;
39822;SDS011;25499;53.958;10.970;2023-05-21T07:57:57;8.25;;;3.78;;
39822;SDS011;25499;53.958;10.970;2023-05-21T08:00:23;10.15;;;4.25;;
39822;SDS011;25499;53.958;10.970;2023-05-21T08:02:51;10.07;;;4.05;;
39822;SDS011;25499;53.958;10.970;2023-05-21T08:05:19;7.70;;;4.25;;
39822;SDS011;25499;53.958;10.970;2023-05-21T08:07:47;8.93;;;4.03;;
39822;SDS011;25499;53.958;10.970;2023-05-21T08:10:14;7.32;;;3.92;;
39822;SDS011;25499;53.958;10.970;2023-05-21T08:12:40;8.27;;;3.75;;
39822;SDS011;25499;53.958;10.970;2023-05-21T08:15:08;8.77;;;3.85;;
39822;SDS011;25499;53.958;10.970;2023-05-21T08:17:35;7.53;;;3.95;;
39822;SDS011;25499;53.958;10.970;2023-05-21T08:20:02;8.27;;;4.32;;
39822;SDS011;25499;53.958;10.970;2023-05-21T08:22:31;7.22;;;4.15;;
39822;SDS011;25499;53.958;10.970;2023-05-21T08:24:58;8.55;;;4.10;;
39822;SDS011;25499;53.958;10.970;2023-05-21T08:27:24;5.85;;;4.00;;
39822;SDS011;25499;53.958;10.970;2023-05-21T08:29:51;11.38;;;4.38;;
39822;SDS011;25499;53.958;10.970;2023-05-21T08:32:18;7.55;;;4.20;;
39822;SDS011;25499;53.958;10.970;2023-05-21T08:34:45;8.27;;;4.47;;
39822;SDS011;25499;53.958;10.970;2023-05-21T08:37:11;9.23;;;4.88;;
39822;SDS011;25499;53.958;10.970;2023-05-21T08:39:41;12.32;;;4.85;;
39822;SDS011;25499;53.958;10.970;2023-05-21T08:44:40;8.88;;;4.90;;
39822;SDS011;25499;53.958;10.970;2023-05-21T08:47:11;13.18;;;4.55;;
39822;SDS011;25499;53.958;10.970;2023-05-21T08:49:41;8.35;;;4.32;;
39822;SDS011;25499;53.958;10.970;2023-05-21T08:52:10;13.70;;;4.45;;
39822;SDS011;25499;53.958;10.970;2023-05-21T08:54:37;10.18;;;5.13;;
39822;SDS011;25499;53.958;10.970;2023-05-21T08:57:05;9.20;;;4.22;;
39822;SDS011;25499;53.958;10.970;2023-05-21T08:59:33;9.82;;;4.90;;
39822;SDS011;25499;53.958;10.970;2023-05-21T09:02:01;9.30;;;4.55;;
39822;SDS011;25499;53.958;10.970;2023-05-21T09:04:29;9.90;;;5.07;;
39822;SDS011;25499;53.958;10.970;2023-05-21T09:06:58;8.02;;;4.45;;
39822;SDS011;25499;53.958;10.970;2023-05-21T09:09:27;11.23;;;4.70;;
39822;SDS011;25499;53.958;10.970;2023-05-21T09:11:59;9.65;;;4.35;;
39822;SDS011;25499;53.958;10.970;2023-05-21T09:14:27;12.63;;;5.00;;
39822;SDS011;25499;53.958;10.970;2023-05-21T09:16:54;10.40;;;3.85;;
39822;SDS011;25499;53.958;10.970;2023-05-21T09:19:21;11.45;;;4.43;;
39822;SDS011;25499;53.958;10.970;2023-05-21T09:21:49;9.68;;;4.60;;
39822;SDS011;25499;53.958;10.970;2023-05-21T09:24:17;7.72;;;4.65;;
39822;SDS011;25499;53.958;10.970;2023-05-21T09:26:46;9.38;;;4.50;;
39822;SDS011;25499;53.958;10.970;2023-05-21T09:29:13;9.75;;;4.90;;
39822;SDS011;25499;53.958;10.970;2023-05-21T09:31:43;12.35;;;5.20;;
39822;SDS011;25499;53.958;10.970;2023-05-21T09:34:10;9.75;;;4.28;;
39822;SDS011;25499;53.958;10.970;2023-05-21T09:36:38;10.90;;;5.32;;
39822;SDS011;25499;53.958;10.970;2023-05-21T09:39:04;11.00;;;4.90;;
39822;SDS011;25499;53.958;10.970;2023-05-21T09:41:31;9.73;;;4.53;;
39822;SDS011;25499;53.958;10.970;2023-05-21T09:44:00;10.95;;;5.03;;
39822;SDS011;25499;53.958;10.970;2023-05-21T09:46:27;8.15;;;4.90;;
39822;SDS011;25499;53.958;10.970;2023-05-21T09:49:04;9.40;;;4.35;;
39822;SDS011;25499;53.958;10.970;2023-05-21T09:51:31;10.93;;;4.20;;
39822;SDS011;25499;53.958;10.970;2023-05-21T09:53:58;13.80;;;4.63;;
39822;SDS011;25499;53.958;10.970;2023-05-21T09:56:25;11.55;;;4.85;;
39822;SDS011;25499;53.958;10.970;2023-05-21T09:58:53;8.43;;;4.20;;
39822;SDS011;25499;53.958;10.970;2023-05-21T10:01:22;8.40;;;4.00;;
39822;SDS011;25499;53.958;10.970;2023-05-21T10:03:51;9.65;;;4.18;;
39822;SDS011;25499;53.958;10.970;2023-05-21T10:06:22;9.90;;;4.35;;
39822;SDS011;25499;53.958;10.970;2023-05-21T10:08:52;6.10;;;4.20;;
39822;SDS011;25499;53.958;10.970;2023-05-21T10:11:21;10.13;;;4.07;;
39822;SDS011;25499;53.958;10.970;2023-05-21T10:13:51;9.85;;;4.43;;
39822;SDS011;25499;53.958;10.970;2023-05-21T10:16:22;10.68;;;4.40;;
39822;SDS011;25499;53.958;10.970;2023-05-21T10:18:49;12.65;;;4.78;;
39822;SDS011;25499;53.958;10.970;2023-05-21T10:21:18;9.95;;;4.25;;
39822;SDS011;25499;53.958;10.970;2023-05-21T10:23:48;10.57;;;4.93;;
39822;SDS011;25499;53.958;10.970;2023-05-21T10:26:15;8.23;;;4.57;;
39822;SDS011;25499;53.958;10.970;2023-05-21T10:28:43;7.90;;;4.22;;
39822;SDS011;25499;53.958;10.970;2023-05-21T10:31:11;15.70;;;4.90;;
39822;SDS011;25499;53.958;10.970;2023-05-21T10:33:38;14.73;;;5.32;;
39822;SDS011;25499;53.958;10.970;2023-05-21T10:36:07;6.88;;;4.93;;
39822;SDS011;25499;53.958;10.970;2023-05-21T10:38:34;9.82;;;5.30;;
39822;SDS011;25499;53.958;10.970;2023-05-21T10:41:03;9.55;;;4.68;;
39822;SDS011;25499;53.958;10.970;2023-05-21T10:43:43;12.63;;;4.65;;
39822;SDS011;25499;53.958;10.970;2023-05-21T10:46:28;10.52;;;4.28;;
39822;SDS011;25499;53.958;10.970;2023-05-21T10:49:28;12.27;;;4.65;;
39822;SDS011;25499;53.958;10.970;2023-05-21T10:52:29;10.10;;;4.30;;
39822;SDS011;25499;53.958;10.970;2023-05-21T10:55:12;7.72;;;4.15;;
39822;SDS011;25499;53.958;10.970;2023-05-21T10:58:09;10.73;;;4.65;;
39822;SDS011;25499;53.958;10.970;2023-05-21T11:00:51;12.60;;;4.57;;
39822;SDS011;25499;53.958;10.970;2023-05-21T11:03:19;11.35;;;5.13;;
39822;SDS011;25499;53.958;10.970;2023-05-21T11:05:50;11.38;;;5.47;;
39822;SDS011;25499;53.958;10.970;2023-05-21T11:08:22;12.93;;;4.82;;
39822;SDS011;25499;53.958;10.970;2023-05-21T11:10:51;11.10;;;5.05;;
39822;SDS011;25499;53.958;10.970;2023-05-21T11:13:21;14.10;;;5.00;;
39822;SDS011;25499;53.958;10.970;2023-05-21T11:18:58;10.05;;;5.10;;
39822;SDS011;25499;53.958;10.970;2023-05-21T11:21:29;14.00;;;4.97;;
39822;SDS011;25499;53.958;10.970;2023-05-21T11:26:59;11.70;;;4.53;;
39822;SDS011;25499;53.958;10.970;2023-05-21T11:29:34;10.90;;;4.85;;
39822;SDS011;25499;53.958;10.970;2023-05-21T11:32:05;13.95;;;5.30;;
39822;SDS011;25499;53.958;10.970;2023-05-21T11:34:36;10.65;;;4.85;;
39822;SDS011;25499;53.958;10.970;2023-05-21T11:37:26;9.80;;;5.30;;
39822;SDS011;25499;53.958;10.970;2023-05-21T11:39:54;11.82;;;5.00;;
39822;SDS011;25499;53.958;10.970;2023-05-21T11:42:29;8.25;;;4.82;;
39822;SDS011;25499;53.958;10.970;2023-05-21T11:44:58;10.93;;;5.47;;
39822;SDS011;25499;53.958;10.970;2023-05-21T11:47:26;8.77;;;4.95;;
39822;SDS011;25499;53.958;10.970;2023-05-21T11:49:57;10.43;;;5.07;;
39822;SDS011;25499;53.958;10.970;2023-05-21T11:52:24;7.60;;;4.57;;
39822;SDS011;25499;53.958;10.970;2023-05-21T11:54:53;9.90;;;5.28;;
39822;SDS011;25499;53.958;10.970;2023-05-21T11:57:25;11.50;;;5.00;;
39822;SDS011;25499;53.958;10.970;2023-05-21T11:59:55;10.77;;;4.75;;
39822;SDS011;25499;53.958;10.970;2023-05-21T12:02:25;10.25;;;5.03;;
39822;SDS011;25499;53.958;10.970;2023-05-21T12:04:53;10.98;;;5.00;;
39822;SDS011;25499;53.958;10.970;2023-05-21T12:07:25;13.95;;;5.05;;
39822;SDS011;25499;53.958;10.970;2023-05-21T12:09:53;14.60;;;5.47;;
39822;SDS011;25499;53.958;10.970;2023-05-21T12:12:21;9.18;;;4.95;;
39822;SDS011;25499;53.958;10.970;2023-05-21T12:14:49;11.10;;;5.55;;
39822;SDS011;25499;53.958;10.970;2023-05-21T12:17:17;11.65;;;6.20;;
39822;SDS011;25499;53.958;10.970;2023-05-21T12:19:46;9.82;;;5.80;;
39822;SDS011;25499;53.958;10.970;2023-05-21T12:22:14;12.83;;;6.00;;
39822;SDS011;25499;53.958;10.970;2023-05-21T12:24:42;11.10;;;5.80;;
39822;SDS011;25499;53.958;10.970;2023-05-21T12:27:09;13.50;;;5.82;;
39822;SDS011;25499;53.958;10.970;2023-05-21T12:29:37;10.55;;;6.00;;
39822;SDS011;25499;53.958;10.970;2023-05-21T12:32:07;10.77;;;6.32;;
39822;SDS011;25499;53.958;10.970;2023-05-21T12:34:36;12.45;;;6.45;;
39822;SDS011;25499;53.958;10.970;2023-05-21T12:37:06;15.25;;;6.38;;
39822;SDS011;25499;53.958;10.970;2023-05-21T12:39:37;13.48;;;6.47;;
39822;SDS011;25499;53.958;10.970;2023-05-21T12:42:05;9.73;;;6.35;;
39822;SDS011;25499;53.958;10.970;2023-05-21T12:44:32;10.32;;;6.05;;
39822;SDS011;25499;53.958;10.970;2023-05-21T12:46:59;10.20;;;6.07;;
39822;SDS011;25499;53.958;10.970;2023-05-21T12:49:30;10.60;;;6.60;;
39822;SDS011;25499;53.958;10.970;2023-05-21T12:51:58;11.85;;;6.80;;
39822;SDS011;25499;53.958;10.970;2023-05-21T12:54:32;10.57;;;6.15;;
39822;SDS011;25499;53.958;10.970;2023-05-21T12:57:09;14.02;;;6.28;;
39822;SDS011;25499;53.958;10.970;2023-05-21T12:59:48;11.30;;;6.50;;
39822;SDS011;25499;53.958;10.970;2023-05-21T13:02:19;9.00;;;6.25;;
39822;SDS011;25499;53.958;10.970;2023-05-21T13:04:47;9.32;;;5.88;;
39822;SDS011;25499;53.958;10.970;2023-05-21T13:07:14;11.60;;;6.60;;
39822;SDS011;25499;53.958;10.970;2023-05-21T13:09:43;11.07;;;6.80;;
39822;SDS011;25499;53.958;10.970;2023-05-21T13:12:10;11.57;;;6.45;;
39822;SDS011;25499;53.958;10.970;2023-05-21T13:14:38;11.98;;;6.18;;
39822;SDS011;25499;53.958;10.970;2023-05-21T13:17:05;9.43;;;6.38;;
39822;SDS011;25499;53.958;10.970;2023-05-21T13:19:32;8.82;;;6.10;;
39822;SDS011;25499;53.958;10.970;2023-05-21T13:21:59;10.80;;;6.25;;
39822;SDS011;25499;53.958;10.970;2023-05-21T13:24:25;13.60;;;6.50;;
39822;SDS011;25499;53.958;10.970;2023-05-21T13:26:54;8.82;;;6.10;;
39822;SDS011;25499;53.958;10.970;2023-05-21T13:29:20;9.40;;;6.10;;
39822;SDS011;25499;53.958;10.970;2023-05-21T13:31:47;10.55;;;6.18;;
39822;SDS011;25499;53.958;10.970;2023-05-21T13:34:14;8.77;;;5.90;;
39822;SDS011;25499;53.958;10.970;2023-05-21T13:36:41;11.20;;;5.90;;
39822;SDS011;25499;53.958;10.970;2023-05-21T13:39:08;10.10;;;6.00;;
39822;SDS011;25499;53.958;10.970;2023-05-21T13:41:36;10.65;;;6.15;;
39822;SDS011;25499;53.958;10.970;2023-05-21T13:44:04;9.45;;;5.80;;
39822;SDS011;25499;53.958;10.970;2023-05-21T13:46:31;10.20;;;6.10;;
39822;SDS011;25499;53.958;10.970;2023-05-21T13:49:03;10.88;;;6.35;;
39822;SDS011;25499;53.958;10.970;2023-05-21T13:51:30;13.88;;;6.55;;
39822;SDS011;25499;53.958;10.970;2023-05-21T13:53:57;14.43;;;6.70;;
39822;SDS011;25499;53.958;10.970;2023-05-21T13:56:24;11.85;;;6.45;;
39822;SDS011;25499;53.958;10.970;2023-05-21T13:58:50;11.57;;;6.13;;
39822;SDS011;25499;53.958;10.970;2023-05-21T14:01:19;8.60;;;6.03;;
39822;SDS011;25499;53.958;10.970;2023-05-21T14:03:46;9.77;;;7.07;;
39822;SDS011;25499;53.958;10.970;2023-05-21T14:06:13;9.32;;;6.70;;
39822;SDS011;25499;53.958;10.970;2023-05-21T14:08:40;10.45;;;6.63;;
39822;SDS011;25499;53.958;10.970;2023-05-21T14:11:07;10.27;;;6.45;;
39822;SDS011;25499;53.958;10.970;2023-05-21T14:13:34;9.35;;;6.70;;
39822;SDS011;25499;53.958;10.970;2023-05-21T14:16:01;10.90;;;6.45;;
39822;SDS011;25499;53.958;10.970;2023-05-21T14:18:29;10.48;;;6.93;;
39822;SDS011;25499;53.958;10.970;2023-05-21T14:20:56;11.50;;;7.20;;
39822;SDS011;25499;53.958;10.970;2023-05-21T14:23:22;12.18;;;7.13;;
39822;SDS011;25499;53.958;10.970;2023-05-21T14:25:49;13.68;;;7.05;;
39822;SDS011;25499;53.958;10.970;2023-05-21T14:28:16;12.60;;;7.55;;
39822;SDS011;25499;53.958;10.970;2023-05-21T14:30:43;13.20;;;7.50;;
39822;SDS011;25499;53.958;10.970;2023-05-21T14:33:10;13.60;;;7.60;;
39822;SDS011;25499;53.958;10.970;2023-05-21T14:35:38;11.20;;;7.50;;
39822;SDS011;25499;53.958;10.970;2023-05-21T14:38:08;13.63;;;7.60;;
39822;SDS011;25499;53.958;10.970;2023-05-21T14:40:35;10.77;;;7.30;;
39822;SDS011;25499;53.958;10.970;2023-05-21T14:43:01;10.57;;;7.72;;
39822;SDS011;25499;53.958;10.970;2023-05-21T14:45:29;10.35;;;7.80;;
39822;SDS011;25499;53.958;10.970;2023-05-21T14:47:59;11.77;;;7.47;;
39822;SDS011;25499;53.958;10.970;2023-05-21T14:50:26;20.50;;;8.20;;
39822;SDS011;25499;53.958;10.970;2023-05-21T14:52:54;16.50;;;7.60;;
39822;SDS011;25499;53.958;10.970;2023-05-21T14:55:21;10.50;;;7.72;;
39822;SDS011;25499;53.958;10.970;2023-05-21T14:57:48;11.52;;;8.20;;
39822;SDS011;25499;53.958;10.970;2023-05-21T15:00:15;14.95;;;7.93;;
39822;SDS011;25499;53.958;10.970;2023-05-21T15:02:41;14.90;;;7.85;;
39822;SDS011;25499;53.958;10.970;2023-05-21T15:05:08;13.75;;;7.90;;
39822;SDS011;25499;53.958;10.970;2023-05-21T15:07:35;10.70;;;8.07;;
39822;SDS011;25499;53.958;10.970;2023-05-21T15:10:04;13.25;;;8.77;;
39822;SDS011;25499;53.958;10.970;2023-05-21T15:12:31;10.10;;;7.53;;
39822;SDS011;25499;53.958;10.970;2023-05-21T15:14:58;10.88;;;7.78;;
39822;SDS011;25499;53.958;10.970;2023-05-21T15:17:25;12.23;;;8.38;;
39822;SDS011;25499;53.958;10.970;2023-05-21T15:19:51;12.65;;;8.10;;
39822;SDS011;25499;53.958;10.970;2023-05-21T15:22:19;10.48;;;7.47;;
39822;SDS011;25499;53.958;10.970;2023-05-21T15:24:45;13.48;;;8.30;;
39822;SDS011;25499;53.958;10.970;2023-05-21T15:27:13;13.43;;;8.23;;
39822;SDS011;25499;53.958;10.970;2023-05-21T15:29:40;11.32;;;7.85;;
39822;SDS011;25499;53.958;10.970;2023-05-21T15:32:09;10.20;;;5.93;;
39822;SDS011;25499;53.958;10.970;2023-05-21T15:34:36;11.18;;;7.70;;
39822;SDS011;25499;53.958;10.970;2023-05-21T15:37:03;11.50;;;7.70;;
39822;SDS011;25499;53.958;10.970;2023-05-21T15:39:30;14.05;;;8.85;;
39822;SDS011;25499;53.958;10.970;2023-05-21T15:41:57;12.88;;;8.50;;
39822;SDS011;25499;53.958;10.970;2023-05-21T15:44:25;13.07;;;7.95;;
39822;SDS011;25499;53.958;10.970;2023-05-21T15:46:53;11.73;;;8.48;;
39822;SDS011;25499;53.958;10.970;2023-05-21T15:49:21;11.52;;;8.00;;
39822;SDS011;25499;53.958;10.970;2023-05-21T15:51:48;13.88;;;8.50;;
39822;SDS011;25499;53.958;10.970;2023-05-21T15:54:15;12.65;;;8.32;;
39822;SDS011;25499;53.958;10.970;2023-05-21T15:56:42;11.88;;;8.10;;
39822;SDS011;25499;53.958;10.970;2023-05-21T15:59:09;13.50;;;8.32;;
39822;SDS011;25499;53.958;10.970;2023-05-21T16:01:38;13.77;;;8.45;;
39822;SDS011;25499;53.958;10.970;2023-05-21T16:04:05;9.80;;;8.38;;
39822;SDS011;25499;53.958;10.970;2023-05-21T16:06:32;13.55;;;8.32;;
39822;SDS011;25499;53.958;10.970;2023-05-21T16:08:58;14.68;;;8.95;;
39822;SDS011;25499;53.958;10.970;2023-05-21T16:11:25;10.68;;;9.57;;
39822;SDS011;25499;53.958;10.970;2023-05-21T16:13:52;13.50;;;9.30;;
39822;SDS011;25499;53.958;10.970;2023-05-21T16:16:20;10.57;;;8.07;;
39822;SDS011;25499;53.958;10.970;2023-05-21T16:18:48;12.85;;;8.65;;
39822;SDS011;25499;53.958;10.970;2023-05-21T16:21:15;12.50;;;8.52;;
39822;SDS011;25499;53.958;10.970;2023-05-21T16:23:41;13.07;;;8.95;;
39822;SDS011;25499;53.958;10.970;2023-05-21T16:26:08;14.13;;;8.77;;
39822;SDS011;25499;53.958;10.970;2023-05-21T16:28:35;10.98;;;9.07;;
39822;SDS011;25499;53.958;10.970;2023-05-21T16:31:04;14.50;;;9.55;;
39822;SDS011;25499;53.958;10.970;2023-05-21T16:33:31;13.45;;;9.02;;
39822;SDS011;25499;53.958;10.970;2023-05-21T16:35:59;11.65;;;8.60;;
39822;SDS011;25499;53.958;10.970;2023-05-21T16:38:25;12.88;;;9.43;;
39822;SDS011;25499;53.958;10.970;2023-05-21T16:40:52;12.18;;;9.20;;
39822;SDS011;25499;53.958;10.970;2023-05-21T16:43:19;12.07;;;8.95;;
39822;SDS011;25499;53.958;10.970;2023-05-21T16:45:46;10.90;;;8.75;;
39822;SDS011;25499;53.958;10.970;2023-05-21T16:48:13;13.82;;;9.10;;
39822;SDS011;25499;53.958;10.970;2023-05-21T16:50:40;12.38;;;9.05;;
39822;SDS011;25499;53.958;10.970;2023-05-21T16:53:09;11.55;;;9.38;;
39822;SDS011;25499;53.958;10.970;2023-05-21T16:55:35;13.85;;;9.38;;
39822;SDS011;25499;53.958;10.970;2023-05-21T16:58:03;12.15;;;9.43;;
39822;SDS011;25499;53.958;10.970;2023-05-21T17:00:30;11.63;;;9.10;;
39822;SDS011;25499;53.958;10.970;2023-05-21T17:02:57;11.55;;;9.52;;
39822;SDS011;25499;53.958;10.970;2023-05-21T17:05:24;11.80;;;9.70;;
39822;SDS011;25499;53.958;10.970;2023-05-21T17:07:51;11.95;;;9.25;;
39822;SDS011;25499;53.958;10.970;2023-05-21T17:10:21;11.80;;;8.90;;
39822;SDS011;25499;53.958;10.970;2023-05-21T17:12:48;12.52;;;9.48;;
39822;SDS011;25499;53.958;10.970;2023-05-21T17:15:15;15.07;;;9.50;;
39822;SDS011;25499;53.958;10.970;2023-05-21T17:17:42;12.20;;;9.48;;
39822;SDS011;25499;53.958;10.970;2023-05-21T17:20:09;12.52;;;9.57;;
39822;SDS011;25499;53.958;10.970;2023-05-21T17:22:37;11.45;;;9.18;;
39822;SDS011;25499;53.958;10.970;2023-05-21T17:25:04;14.57;;;9.57;;
39822;SDS011;25499;53.958;10.970;2023-05-21T17:27:33;11.73;;;9.07;;
39822;SDS011;25499;53.958;10.970;2023-05-21T17:30:00;14.13;;;9.70;;
39822;SDS011;25499;53.958;10.970;2023-05-21T17:32:28;10.25;;;9.13;;
39822;SDS011;25499;53.958;10.970;2023-05-21T17:34:54;13.27;;;8.90;;
39822;SDS011;25499;53.958;10.970;2023-05-21T17:37:21;11.98;;;9.60;;
39822;SDS011;25499;53.958;10.970;2023-05-21T17:39:48;12.30;;;8.65;;
39822;SDS011;25499;53.958;10.970;2023-05-21T17:42:16;14.20;;;9.88;;
39822;SDS011;25499;53.958;10.970;2023-05-21T17:44:44;11.13;;;9.48;;
39822;SDS011;25499;53.958;10.970;2023-05-21T17:47:12;11.55;;;8.73;;
39822;SDS011;25499;53.958;10.970;2023-05-21T17:49:39;11.48;;;8.50;;
39822;SDS011;25499;53.958;10.970;2023-05-21T17:52:07;11.90;;;8.88;;
39822;SDS011;25499;53.958;10.970;2023-05-21T17:54:33;10.75;;;9.15;;
39822;SDS011;25499;53.958;10.970;2023-05-21T17:57:01;9.93;;;8.93;;
39822;SDS011;25499;53.958;10.970;2023-05-21T17:59:28;13.82;;;8.93;;
39822;SDS011;25499;53.958;10.970;2023-05-21T18:01:56;11.18;;;8.95;;
39822;SDS011;25499;53.958;10.970;2023-05-21T18:06:51;13.70;;;9.85;;
39822;SDS011;25499;53.958;10.970;2023-05-21T18:09:18;11.52;;;9.38;;
39822;SDS011;25499;53.958;10.970;2023-05-21T18:11:45;12.32;;;9.02;;
39822;SDS011;25499;53.958;10.970;2023-05-21T18:14:12;11.00;;;8.80;;
39822;SDS011;25499;53.958;10.970;2023-05-21T18:16:39;14.35;;;8.88;;
39822;SDS011;25499;53.958;10.970;2023-05-21T18:19:07;11.85;;;9.50;;
39822;SDS011;25499;53.958;10.970;2023-05-21T18:21:34;11.48;;;8.80;;
39822;SDS011;25499;53.958;10.970;2023-05-21T18:24:00;11.63;;;9.18;;
39822;SDS011;25499;53.958;10.970;2023-05-21T18:26:28;11.63;;;8.85;;
39822;SDS011;25499;53.958;10.970;2023-05-21T18:28:55;11.88;;;9.13;;
39822;SDS011;25499;53.958;10.970;2023-05-21T18:31:23;13.77;;;8.90;;
39822;SDS011;25499;53.958;10.970;2023-05-21T18:33:51;13.63;;;9.15;;
39822;SDS011;25499;53.958;10.970;2023-05-21T18:36:19;13.95;;;9.52;;
39822;SDS011;25499;53.958;10.970;2023-05-21T18:38:46;12.07;;;9.38;;
39822;SDS011;25499;53.958;10.970;2023-05-21T18:41:13;12.13;;;9.68;;
39822;SDS011;25499;53.958;10.970;2023-05-21T18:43:40;12.48;;;8.95;;
39822;SDS011;25499;53.958;10.970;2023-05-21T18:46:07;13.02;;;9.60;;
39822;SDS011;25499;53.958;10.970;2023-05-21T18:48:33;12.00;;;9.27;;
39822;SDS011;25499;53.958;10.970;2023-05-21T18:51:01;14.13;;;9.75;;
39822;SDS011;25499;53.958;10.970;2023-05-21T18:53:30;10.90;;;8.85;;
39822;SDS011;25499;53.958;10.970;2023-05-21T18:55:56;10.25;;;9.02;;
39822;SDS011;25499;53.958;10.970;2023-05-21T18:58:23;12.35;;;9.65;;
39822;SDS011;25499;53.958;10.970;2023-05-21T19:00:50;12.52;;;9.55;;
39822;SDS011;25499;53.958;10.970;2023-05-21T19:03:17;13.77;;;9.73;;
39822;SDS011;25499;53.958;10.970;2023-05-21T19:05:43;12.50;;;9.13;;
39822;SDS011;25499;53.958;10.970;2023-05-21T19:08:10;10.80;;;8.57;;
39822;SDS011;25499;53.958;10.970;2023-05-21T19:10:38;10.82;;;9.35;;
39822;SDS011;25499;53.958;10.970;2023-05-21T19:13:05;12.57;;;9.45;;
39822;SDS011;25499;53.958;10.970;2023-05-21T19:15:32;10.57;;;8.85;;
39822;SDS011;25499;53.958;10.970;2023-05-21T19:17:59;11.48;;;9.63;;
39822;SDS011;25499;53.958;10.970;2023-05-21T19:20:27;11.25;;;9.30;;
39822;SDS011;25499;53.958;10.970;2023-05-21T19:22:54;10.77;;;9.65;;
39822;SDS011;25499;53.958;10.970;2023-05-21T19:25:21;12.27;;;9.77;;
39822;SDS011;25499;53.958;10.970;2023-05-21T19:27:49;13.88;;;9.20;;
39822;SDS011;25499;53.958;10.970;2023-05-21T19:30:16;11.25;;;9.55;;
39822;SDS011;25499;53.958;10.970;2023-05-21T19:32:44;11.48;;;9.30;;
39822;SDS011;25499;53.958;10.970;2023-05-21T19:35:11;14.57;;;9.73;;
39822;SDS011;25499;53.958;10.970;2023-05-21T19:37:38;10.82;;;9.20;;
39822;SDS011;25499;53.958;10.970;2023-05-21T19:40:05;13.18;;;10.35;;
39822;SDS011;25499;53.958;10.970;2023-05-21T19:42:33;13.40;;;9.40;;
39822;SDS011;25499;53.958;10.970;2023-05-21T19:45:01;10.77;;;9.63;;
39822;SDS011;25499;53.958;10.970;2023-05-21T19:47:29;11.60;;;8.93;;
39822;SDS011;25499;53.958;10.970;2023-05-21T19:49:56;13.20;;;10.27;;
39822;SDS011;25499;53.958;10.970;2023-05-21T19:52:23;12.35;;;10.00;;
39822;SDS011;25499;53.958;10.970;2023-05-21T19:54:50;13.77;;;9.98;;
39822;SDS011;25499;53.958;10.970;2023-05-21T19:57:17;10.65;;;9.18;;
39822;SDS011;25499;53.958;10.970;2023-05-21T19:59:45;10.88;;;9.52;;
39822;SDS011;25499;53.958;10.970;2023-05-21T20:02:13;9.93;;;8.65;;
39822;SDS011;25499;53.958;10.970;2023-05-21T20:04:41;12.82;;;9.20;;
39822;SDS011;25499;53.958;10.970;2023-05-21T20:07:07;10.57;;;9.45;;
39822;SDS011;25499;53.958;10.970;2023-05-21T20:09:34;10.10;;;8.90;;
39822;SDS011;25499;53.958;10.970;2023-05-21T20:12:01;10.05;;;8.85;;
39822;SDS011;25499;53.958;10.970;2023-05-21T20:14:28;10.00;;;9.00;;
39822;SDS011;25499;53.958;10.970;2023-05-21T20:16:57;9.65;;;8.65;;
39822;SDS011;25499;53.958;10.970;2023-05-21T20:19:25;11.27;;;9.13;;
39822;SDS011;25499;53.958;10.970;2023-05-21T20:21:52;11.50;;;8.75;;
39822;SDS011;25499;53.958;10.970;2023-05-21T20:24:19;11.95;;;9.32;;
39822;SDS011;25499;53.958;10.970;2023-05-21T20:26:46;10.05;;;8.98;;
39822;SDS011;25499;53.958;10.970;2023-05-21T20:29:12;9.00;;;8.10;;
